sensor_id;sensor_type;location;lat;lon;timestamp;temperature;humidity
3998;DHT22;61314;53.444;9.902;2022-07-11T00:00:22;12.50;99.90
3998;DHT22;61314;53.444;9.902;2022-07-11T00:02:50;12.50;99.90
3998;DHT22;61314;53.444;9.902;2022-07-11T00:05:18;12.40;99.90
3998;DHT22;61314;53.444;9.902;2022-07-11T00:07:45;12.40;99.90
3998;DHT22;61314;53.444;9.902;2022-07-11T00:10:12;12.40;99.90
3998;DHT22;61314;53.444;9.902;2022-07-11T00:12:39;12.40;99.90
3998;DHT22;61314;53.444;9.902;2022-07-11T00:15:06;12.40;99.90
3998;DHT22;61314;53.444;9.902;2022-07-11T00:17:33;12.40;99.90
3998;DHT22;61314;53.444;9.902;2022-07-11T00:20:00;12.30;99.90
3998;DHT22;61314;53.444;9.902;2022-07-11T00:22:27;12.30;99.90
3998;DHT22;61314;53.444;9.902;2022-07-11T00:24:53;12.30;99.90
3998;DHT22;61314;53.444;9.902;2022-07-11T00:27:20;12.30;99.90
3998;DHT22;61314;53.444;9.902;2022-07-11T00:29:47;12.30;99.90
3998;DHT22;61314;53.444;9.902;2022-07-11T00:32:14;12.30;99.90
3998;DHT22;61314;53.444;9.902;2022-07-11T00:34:41;12.20;99.90
3998;DHT22;61314;53.444;9.902;2022-07-11T00:37:08;12.30;99.90
3998;DHT22;61314;53.444;9.902;2022-07-11T00:39:35;12.30;99.90
3998;DHT22;61314;53.444;9.902;2022-07-11T00:42:02;12.20;99.90
3998;DHT22;61314;53.444;9.902;2022-07-11T00:44:29;12.20;99.90
3998;DHT22;61314;53.444;9.902;2022-07-11T00:46:55;12.20;99.90
3998;DHT22;61314;53.444;9.902;2022-07-11T00:49:22;12.20;99.90
3998;DHT22;61314;53.444;9.902;2022-07-11T00:51:49;12.10;99.90
3998;DHT22;61314;53.444;9.902;2022-07-11T00:54:17;12.10;99.90
3998;DHT22;61314;53.444;9.902;2022-07-11T00:59:13;12.10;99.90
3998;DHT22;61314;53.444;9.902;2022-07-11T01:01:41;12.10;99.90
3998;DHT22;61314;53.444;9.902;2022-07-11T01:04:08;12.10;99.90
3998;DHT22;61314;53.444;9.902;2022-07-11T01:06:35;12.10;99.90
3998;DHT22;61314;53.444;9.902;2022-07-11T01:09:02;12.10;99.90
3998;DHT22;61314;53.444;9.902;2022-07-11T01:11:29;12.00;99.90
3998;DHT22;61314;53.444;9.902;2022-07-11T01:13:56;12.10;99.90
3998;DHT22;61314;53.444;9.902;2022-07-11T01:16:23;12.10;99.90
3998;DHT22;61314;53.444;9.902;2022-07-11T01:18:54;12.10;99.90
3998;DHT22;61314;53.444;9.902;2022-07-11T01:21:38;12.10;99.90
3998;DHT22;61314;53.444;9.902;2022-07-11T01:24:06;12.10;99.90
3998;DHT22;61314;53.444;9.902;2022-07-11T01:26:34;12.10;99.90
3998;DHT22;61314;53.444;9.902;2022-07-11T01:29:12;12.20;99.90
3998;DHT22;61314;53.444;9.902;2022-07-11T01:31:40;12.10;99.90
3998;DHT22;61314;53.444;9.902;2022-07-11T01:34:07;12.10;99.90
3998;DHT22;61314;53.444;9.902;2022-07-11T01:36:34;12.10;99.90
3998;DHT22;61314;53.444;9.902;2022-07-11T01:39:02;12.20;99.90
3998;DHT22;61314;53.444;9.902;2022-07-11T01:41:29;12.10;99.90
3998;DHT22;61314;53.444;9.902;2022-07-11T01:43:56;12.20;99.90
3998;DHT22;61314;53.444;9.902;2022-07-11T01:46:22;12.10;99.90
3998;DHT22;61314;53.444;9.902;2022-07-11T01:48:49;12.20;99.90
3998;DHT22;61314;53.444;9.902;2022-07-11T01:51:17;12.20;99.90
3998;DHT22;61314;53.444;9.902;2022-07-11T01:53:44;12.20;99.90
3998;DHT22;61314;53.444;9.902;2022-07-11T01:56:12;12.20;99.90
3998;DHT22;61314;53.444;9.902;2022-07-11T01:58:45;12.20;99.90
3998;DHT22;61314;53.444;9.902;2022-07-11T02:01:12;12.30;99.90
3998;DHT22;61314;53.444;9.902;2022-07-11T02:03:39;12.30;99.90
3998;DHT22;61314;53.444;9.902;2022-07-11T02:06:07;12.20;99.90
3998;DHT22;61314;53.444;9.902;2022-07-11T02:08:35;12.20;99.90
3998;DHT22;61314;53.444;9.902;2022-07-11T02:11:02;12.30;99.90
3998;DHT22;61314;53.444;9.902;2022-07-11T02:13:29;12.30;99.90
3998;DHT22;61314;53.444;9.902;2022-07-11T02:15:55;12.30;99.90
3998;DHT22;61314;53.444;9.902;2022-07-11T02:18:22;12.30;99.90
3998;DHT22;61314;53.444;9.902;2022-07-11T02:20:49;12.30;99.90
3998;DHT22;61314;53.444;9.902;2022-07-11T02:23:18;12.30;99.90
3998;DHT22;61314;53.444;9.902;2022-07-11T02:25:45;12.20;99.90
3998;DHT22;61314;53.444;9.902;2022-07-11T02:28:12;12.20;99.90
3998;DHT22;61314;53.444;9.902;2022-07-11T02:30:41;12.20;99.90
3998;DHT22;61314;53.444;9.902;2022-07-11T02:33:09;12.20;99.90
3998;DHT22;61314;53.444;9.902;2022-07-11T02:35:41;12.10;99.90
3998;DHT22;61314;53.444;9.902;2022-07-11T02:38:08;12.10;99.90
3998;DHT22;61314;53.444;9.902;2022-07-11T02:40:35;12.00;99.90
3998;DHT22;61314;53.444;9.902;2022-07-11T02:43:03;12.00;99.90
3998;DHT22;61314;53.444;9.902;2022-07-11T02:45:30;12.00;99.90
3998;DHT22;61314;53.444;9.902;2022-07-11T02:47:57;11.90;99.90
3998;DHT22;61314;53.444;9.902;2022-07-11T02:50:24;11.90;99.90
3998;DHT22;61314;53.444;9.902;2022-07-11T02:52:51;11.90;99.90
3998;DHT22;61314;53.444;9.902;2022-07-11T03:00:15;11.90;99.90
3998;DHT22;61314;53.444;9.902;2022-07-11T03:02:43;11.90;99.90
3998;DHT22;61314;53.444;9.902;2022-07-11T03:05:10;11.90;99.90
3998;DHT22;61314;53.444;9.902;2022-07-11T06:07:34;14.10;99.90
3998;DHT22;61314;53.444;9.902;2022-07-11T06:10:25;14.20;99.90
3998;DHT22;61314;53.444;9.902;2022-07-11T06:12:52;14.30;99.90
3998;DHT22;61314;53.444;9.902;2022-07-11T06:15:19;14.50;99.90
3998;DHT22;61314;53.444;9.902;2022-07-11T06:17:46;14.60;99.90
3998;DHT22;61314;53.444;9.902;2022-07-11T06:20:13;14.80;99.90
3998;DHT22;61314;53.444;9.902;2022-07-11T06:22:40;15.00;99.90
3998;DHT22;61314;53.444;9.902;2022-07-11T06:25:08;15.20;99.90
3998;DHT22;61314;53.444;9.902;2022-07-11T06:27:36;15.40;99.90
3998;DHT22;61314;53.444;9.902;2022-07-11T06:30:03;15.70;99.90
3998;DHT22;61314;53.444;9.902;2022-07-11T06:32:30;15.90;99.90
3998;DHT22;61314;53.444;9.902;2022-07-11T06:34:58;16.00;99.90
3998;DHT22;61314;53.444;9.902;2022-07-11T06:37:25;16.20;99.90
3998;DHT22;61314;53.444;9.902;2022-07-11T06:39:51;16.30;99.90
3998;DHT22;61314;53.444;9.902;2022-07-11T06:42:18;16.40;99.90
3998;DHT22;61314;53.444;9.902;2022-07-11T06:44:51;16.60;99.90
3998;DHT22;61314;53.444;9.902;2022-07-11T06:47:19;16.80;99.90
3998;DHT22;61314;53.444;9.902;2022-07-11T06:49:45;17.00;99.90
3998;DHT22;61314;53.444;9.902;2022-07-11T06:52:12;17.00;99.90
3998;DHT22;61314;53.444;9.902;2022-07-11T06:57:08;17.00;99.90
3998;DHT22;61314;53.444;9.902;2022-07-11T06:59:38;17.40;99.90
3998;DHT22;61314;53.444;9.902;2022-07-11T07:02:05;17.50;99.90
3998;DHT22;61314;53.444;9.902;2022-07-11T07:04:32;17.50;99.90
3998;DHT22;61314;53.444;9.902;2022-07-11T07:07:00;17.50;99.90
3998;DHT22;61314;53.444;9.902;2022-07-11T07:09:28;17.70;99.90
3998;DHT22;61314;53.444;9.902;2022-07-11T07:14:23;17.90;99.90
3998;DHT22;61314;53.444;9.902;2022-07-11T07:21:44;18.10;99.90
3998;DHT22;61314;53.444;9.902;2022-07-11T07:26:43;18.50;99.90
3998;DHT22;61314;53.444;9.902;2022-07-11T07:29:10;18.80;99.90
3998;DHT22;61314;53.444;9.902;2022-07-11T07:31:37;19.00;99.90
3998;DHT22;61314;53.444;9.902;2022-07-11T07:34:04;19.30;99.90
3998;DHT22;61314;53.444;9.902;2022-07-11T07:36:31;19.40;99.90
3998;DHT22;61314;53.444;9.902;2022-07-11T07:38:58;19.60;99.90
3998;DHT22;61314;53.444;9.902;2022-07-11T07:41:25;19.70;99.90
3998;DHT22;61314;53.444;9.902;2022-07-11T07:43:52;19.80;99.90
3998;DHT22;61314;53.444;9.902;2022-07-11T07:46:19;19.90;99.90
3998;DHT22;61314;53.444;9.902;2022-07-11T07:48:49;20.00;99.90
3998;DHT22;61314;53.444;9.902;2022-07-11T07:51:15;20.10;99.90
3998;DHT22;61314;53.444;9.902;2022-07-11T07:53:42;20.20;99.90
3998;DHT22;61314;53.444;9.902;2022-07-11T07:56:09;20.30;99.90
3998;DHT22;61314;53.444;9.902;2022-07-11T07:58:36;20.30;99.90
3998;DHT22;61314;53.444;9.902;2022-07-11T08:01:05;20.40;99.90
3998;DHT22;61314;53.444;9.902;2022-07-11T08:06:19;20.40;99.90
3998;DHT22;61314;53.444;9.902;2022-07-11T08:08:46;20.60;99.90
3998;DHT22;61314;53.444;9.902;2022-07-11T08:11:13;20.60;99.90
3998;DHT22;61314;53.444;9.902;2022-07-11T08:18:57;20.60;99.90
3998;DHT22;61314;53.444;9.902;2022-07-11T08:21:26;20.70;99.90
3998;DHT22;61314;53.444;9.902;2022-07-11T08:23:54;20.70;99.90
3998;DHT22;61314;53.444;9.902;2022-07-11T08:26:23;20.80;99.90
3998;DHT22;61314;53.444;9.902;2022-07-11T08:41:15;21.00;99.90
3998;DHT22;61314;53.444;9.902;2022-07-11T08:43:45;21.20;99.90
3998;DHT22;61314;53.444;9.902;2022-07-11T08:46:13;20.90;99.90
3998;DHT22;61314;53.444;9.902;2022-07-11T08:48:42;21.10;99.90
3998;DHT22;61314;53.444;9.902;2022-07-11T08:51:09;21.20;99.90
3998;DHT22;61314;53.444;9.902;2022-07-11T09:06:20;21.60;99.90
3998;DHT22;61314;53.444;9.902;2022-07-11T09:34:21;21.80;99.90
3998;DHT22;61314;53.444;9.902;2022-07-11T10:32:19;22.10;99.90
3998;DHT22;61314;53.444;9.902;2022-07-11T10:35:08;22.30;99.90
3998;DHT22;61314;53.444;9.902;2022-07-11T17:16:05;21.30;99.90
3998;DHT22;61314;53.444;9.902;2022-07-11T17:18:33;21.30;99.90
3998;DHT22;61314;53.444;9.902;2022-07-11T17:21:02;21.30;99.90
3998;DHT22;61314;53.444;9.902;2022-07-11T17:25:57;21.10;99.90
3998;DHT22;61314;53.444;9.902;2022-07-11T17:35:48;21.10;99.90
3998;DHT22;61314;53.444;9.902;2022-07-11T18:20:31;20.40;99.90
3998;DHT22;61314;53.444;9.902;2022-07-11T18:22:58;19.70;99.90
3998;DHT22;61314;53.444;9.902;2022-07-11T18:25:24;19.50;99.90
3998;DHT22;61314;53.444;9.902;2022-07-11T18:27:51;19.50;99.90
3998;DHT22;61314;53.444;9.902;2022-07-11T18:30:19;19.50;99.90
3998;DHT22;61314;53.444;9.902;2022-07-11T18:32:46;19.50;99.90
3998;DHT22;61314;53.444;9.902;2022-07-11T18:35:14;19.30;99.90
3998;DHT22;61314;53.444;9.902;2022-07-11T18:37:42;19.30;99.90
3998;DHT22;61314;53.444;9.902;2022-07-11T18:40:09;19.20;99.90
3998;DHT22;61314;53.444;9.902;2022-07-11T18:42:55;19.10;99.90
3998;DHT22;61314;53.444;9.902;2022-07-11T18:45:22;19.10;99.90
3998;DHT22;61314;53.444;9.902;2022-07-11T18:47:49;18.90;99.90
3998;DHT22;61314;53.444;9.902;2022-07-11T19:39:50;17.70;99.90
3998;DHT22;61314;53.444;9.902;2022-07-11T19:42:17;17.60;99.90
3998;DHT22;61314;53.444;9.902;2022-07-11T19:44:44;17.60;99.90
3998;DHT22;61314;53.444;9.902;2022-07-11T20:32:03;16.60;99.90
3998;DHT22;61314;53.444;9.902;2022-07-11T20:37:06;16.60;99.90
3998;DHT22;61314;53.444;9.902;2022-07-11T22:30:15;14.90;99.90
3998;DHT22;61314;53.444;9.902;2022-07-11T22:32:42;14.70;99.90
3998;DHT22;61314;53.444;9.902;2022-07-11T22:35:09;14.70;99.90
3998;DHT22;61314;53.444;9.902;2022-07-11T22:37:36;14.70;99.90
3998;DHT22;61314;53.444;9.902;2022-07-11T22:40:03;14.70;99.90
3998;DHT22;61314;53.444;9.902;2022-07-11T22:42:30;14.60;99.90
3998;DHT22;61314;53.444;9.902;2022-07-11T22:45:17;14.60;99.90
3998;DHT22;61314;53.444;9.902;2022-07-11T22:48:04;14.60;99.90
3998;DHT22;61314;53.444;9.902;2022-07-11T22:50:32;14.50;99.90
3998;DHT22;61314;53.444;9.902;2022-07-11T22:53:00;14.50;99.90
3998;DHT22;61314;53.444;9.902;2022-07-11T22:58:06;14.40;99.90
3998;DHT22;61314;53.444;9.902;2022-07-11T23:07:56;14.40;99.90
3998;DHT22;61314;53.444;9.902;2022-07-11T23:15:18;14.30;99.90
3998;DHT22;61314;53.444;9.902;2022-07-11T23:17:46;14.30;99.90
3998;DHT22;61314;53.444;9.902;2022-07-11T23:20:13;14.20;99.90
3998;DHT22;61314;53.444;9.902;2022-07-11T23:25:10;14.20;99.90
3998;DHT22;61314;53.444;9.902;2022-07-11T23:27:37;14.10;99.90
3998;DHT22;61314;53.444;9.902;2022-07-11T23:32:31;14.10;99.90
3998;DHT22;61314;53.444;9.902;2022-07-11T23:34:59;14.10;99.90
3998;DHT22;61314;53.444;9.902;2022-07-11T23:37:26;14.00;99.90
3998;DHT22;61314;53.444;9.902;2022-07-11T23:39:53;14.00;99.90
3998;DHT22;61314;53.444;9.902;2022-07-11T23:42:20;14.00;99.90
3998;DHT22;61314;53.444;9.902;2022-07-11T23:44:46;14.00;99.90
3998;DHT22;61314;53.444;9.902;2022-07-11T23:47:13;13.90;99.90
3998;DHT22;61314;53.444;9.902;2022-07-11T23:49:40;13.90;99.90
3998;DHT22;61314;53.444;9.902;2022-07-11T23:52:08;13.90;99.90
3998;DHT22;61314;53.444;9.902;2022-07-11T23:54:35;13.80;99.90
3998;DHT22;61314;53.444;9.902;2022-07-11T23:57:02;13.80;99.90
3998;DHT22;61314;53.444;9.902;2022-07-11T23:59:29;13.80;99.90
